Gassoway, Louisiana
Current Conditions -  °F | °C
As of 9:27 AM on Saturday 20 Dec 2014 (Local Time) from KTVR Reporting Station
Haze Haze  
Wind Chill:   Ceiling: 1000
Heat Index:   Visibility: 6mi
Dew Point:   Wind: 9mph
Humidity: 90%   Direction: 30°NNE
Pressure: 30.26"   Gusts: NA
Location:  32.8408°N, 91.231°W
Report Text: KTVR 201527Z AUTO 03008KT 6SM BR OVC010 07/06 A3026 RMK AO2 CIG 008V013 T00720056
Loading
Personal Weather Stations






























Interactive Weather Map New forecast layout! Learn more

10-Day Weather Forecast

Advertisements
Track Severe Weather on mobile